createdAt,value
2018-12-27T00:00:41.372Z,100.00
2018-12-27T00:03:08.315Z,100.00
2018-12-27T00:05:35.248Z,100.00
2018-12-27T00:08:02.330Z,100.00
2018-12-27T00:10:29.232Z,100.00
2018-12-27T00:12:56.154Z,100.00
2018-12-27T00:15:23.474Z,100.00
2018-12-27T00:17:50.373Z,100.00
2018-12-27T00:20:17.298Z,100.00
2018-12-27T00:22:44.320Z,100.00
2018-12-27T00:25:11.262Z,100.00
2018-12-27T00:27:38.148Z,100.00
2018-12-27T00:30:05.084Z,100.00
2018-12-27T00:32:33.445Z,100.00
2018-12-27T00:35:00.505Z,100.00
2018-12-27T00:37:27.396Z,100.00
2018-12-27T00:39:54.329Z,100.00
2018-12-27T00:42:21.215Z,100.00
2018-12-27T00:44:48.224Z,100.00
2018-12-27T00:47:15.121Z,100.00
2018-12-27T00:49:42.051Z,100.00
2018-12-27T00:52:08.855Z,100.00
2018-12-27T00:54:35.798Z,100.00
2018-12-27T00:57:02.583Z,100.00
2018-12-27T00:59:29.315Z,100.00
2018-12-27T01:01:56.222Z,100.00
2018-12-27T01:04:23.064Z,100.00
2018-12-27T01:06:49.948Z,100.00
2018-12-27T01:09:16.916Z,100.00
2018-12-27T01:11:43.829Z,100.00
2018-12-27T01:14:10.806Z,100.00
2018-12-27T01:16:37.721Z,100.00
2018-12-27T01:19:04.494Z,100.00
2018-12-27T01:21:31.526Z,100.00
2018-12-27T01:23:58.432Z,100.00
2018-12-27T01:26:25.348Z,100.00
2018-12-27T01:28:52.229Z,100.00
2018-12-27T01:31:19.057Z,100.00
2018-12-27T01:33:45.965Z,100.00
2018-12-27T01:36:12.889Z,100.00
2018-12-27T01:38:39.788Z,100.00
2018-12-27T01:41:06.651Z,100.00
2018-12-27T01:43:33.563Z,100.00
2018-12-27T01:46:00.433Z,100.00
2018-12-27T01:48:27.241Z,100.00
2018-12-27T01:50:54.150Z,100.00
2018-12-27T01:53:21.063Z,100.00
2018-12-27T01:55:47.887Z,100.00
2018-12-27T01:58:14.700Z,100.00
2018-12-27T02:00:41.421Z,100.00
2018-12-27T02:03:08.354Z,100.00
2018-12-27T02:05:35.280Z,100.00
2018-12-27T02:08:02.112Z,100.00
2018-12-27T02:10:28.854Z,100.00
2018-12-27T02:12:55.742Z,100.00
2018-12-27T02:15:22.658Z,100.00
2018-12-27T02:17:49.578Z,100.00
2018-12-27T02:20:16.517Z,100.00
2018-12-27T02:22:43.419Z,100.00
2018-12-27T02:25:10.359Z,100.00
2018-12-27T02:27:37.245Z,100.00
2018-12-27T02:30:04.231Z,100.00
2018-12-27T02:32:31.165Z,100.00
2018-12-27T02:34:58.052Z,100.00
2018-12-27T02:37:25.037Z,100.00
2018-12-27T02:39:51.938Z,100.00
2018-12-27T02:42:19.002Z,100.00
2018-12-27T02:44:45.894Z,100.00
2018-12-27T02:47:12.854Z,100.00
2018-12-27T02:49:39.660Z,100.00
2018-12-27T02:52:06.598Z,100.00
2018-12-27T02:54:33.484Z,100.00
2018-12-27T02:57:00.317Z,100.00
2018-12-27T02:59:27.208Z,100.00
2018-12-27T03:01:54.138Z,100.00
2018-12-27T03:04:21.059Z,100.00
2018-12-27T03:06:47.956Z,100.00
2018-12-27T03:09:14.785Z,100.00
2018-12-27T03:11:41.729Z,100.00
2018-12-27T03:14:08.639Z,100.00
2018-12-27T03:16:35.625Z,100.00
2018-12-27T03:19:02.528Z,100.00
2018-12-27T03:21:29.469Z,100.00
2018-12-27T03:23:57.036Z,100.00
2018-12-27T03:26:23.947Z,100.00
2018-12-27T03:28:50.933Z,100.00
2018-12-27T03:31:17.881Z,100.00
2018-12-27T03:33:52.495Z,100.00
2018-12-27T03:36:13.615Z,100.00
2018-12-27T03:38:40.545Z,100.00
2018-12-27T03:41:07.332Z,100.00
2018-12-27T03:43:34.270Z,100.00
2018-12-27T03:46:01.177Z,100.00
2018-12-27T03:48:28.124Z,100.00
2018-12-27T03:50:55.024Z,100.00
2018-12-27T03:53:21.965Z,100.00
2018-12-27T03:55:48.885Z,100.00
2018-12-27T03:58:15.859Z,100.00
2018-12-27T04:00:42.800Z,100.00
2018-12-27T04:03:09.732Z,100.00
2018-12-27T04:05:36.553Z,100.00
2018-12-27T04:08:03.490Z,100.00
2018-12-27T04:10:30.383Z,100.00
2018-12-27T04:12:57.252Z,100.00
2018-12-27T04:15:24.307Z,100.00
2018-12-27T04:17:51.236Z,100.00
2018-12-27T04:20:18.159Z,100.00
2018-12-27T04:22:45.104Z,100.00
2018-12-27T04:25:12.013Z,100.00
2018-12-27T04:27:38.962Z,100.00
2018-12-27T04:30:05.865Z,100.00
2018-12-27T04:32:33.362Z,100.00
2018-12-27T04:35:00.919Z,100.00
2018-12-27T04:37:27.845Z,100.00
2018-12-27T04:39:54.855Z,100.00
2018-12-27T04:42:22.984Z,100.00
2018-12-27T04:44:49.913Z,100.00
2018-12-27T04:47:16.872Z,100.00
2018-12-27T04:49:43.755Z,100.00
2018-12-27T04:52:10.705Z,100.00
2018-12-27T04:54:37.604Z,100.00
2018-12-27T04:57:04.498Z,100.00
2018-12-27T04:59:31.434Z,100.00
2018-12-27T05:01:58.370Z,100.00
2018-12-27T05:04:25.319Z,100.00
2018-12-27T05:06:52.209Z,100.00
2018-12-27T05:09:19.160Z,100.00
2018-12-27T05:11:46.108Z,100.00
2018-12-27T05:14:13.102Z,100.00
2018-12-27T05:16:40.041Z,100.00
2018-12-27T05:19:06.964Z,100.00
2018-12-27T05:21:33.870Z,100.00
2018-12-27T05:24:00.813Z,100.00
2018-12-27T05:26:27.733Z,100.00
2018-12-27T05:28:54.656Z,100.00
2018-12-27T05:31:21.559Z,100.00
2018-12-27T05:33:48.727Z,100.00
2018-12-27T05:36:15.610Z,100.00
2018-12-27T05:38:42.572Z,100.00
2018-12-27T05:41:09.480Z,100.00
2018-12-27T05:43:36.408Z,100.00
2018-12-27T05:46:03.371Z,100.00
2018-12-27T05:48:30.296Z,100.00
2018-12-27T05:50:57.188Z,100.00
2018-12-27T05:53:24.133Z,100.00
2018-12-27T05:55:51.047Z,100.00
2018-12-27T05:58:17.982Z,100.00
2018-12-27T06:00:44.890Z,100.00
2018-12-27T06:03:11.791Z,100.00
2018-12-27T06:05:38.977Z,100.00
2018-12-27T06:08:05.933Z,100.00
2018-12-27T06:10:32.915Z,100.00
2018-12-27T06:12:59.826Z,100.00
2018-12-27T06:15:26.766Z,100.00
2018-12-27T06:17:53.676Z,100.00
2018-12-27T06:20:20.591Z,100.00
2018-12-27T06:22:47.499Z,100.00
2018-12-27T06:25:14.439Z,100.00
2018-12-27T06:27:41.534Z,100.00
2018-12-27T06:30:08.480Z,100.00
2018-12-27T06:32:35.382Z,100.00
2018-12-27T06:35:02.325Z,100.00
2018-12-27T06:37:29.309Z,100.00
2018-12-27T06:39:56.254Z,100.00
2018-12-27T06:42:23.302Z,100.00
2018-12-27T06:44:50.273Z,100.00
2018-12-27T06:47:17.163Z,100.00
2018-12-27T06:49:44.141Z,100.00
2018-12-27T06:52:11.055Z,100.00
2018-12-27T06:54:38.132Z,100.00
2018-12-27T06:57:05.023Z,100.00
2018-12-27T06:59:31.955Z,100.00
2018-12-27T07:01:58.884Z,100.00
2018-12-27T07:04:25.819Z,100.00
2018-12-27T07:06:52.724Z,100.00
2018-12-27T07:09:19.612Z,100.00
2018-12-27T07:11:46.714Z,100.00
2018-12-27T07:14:13.617Z,100.00
2018-12-27T07:16:40.548Z,100.00
2018-12-27T07:19:07.448Z,100.00
2018-12-27T07:21:34.405Z,100.00
2018-12-27T07:24:01.708Z,100.00
2018-12-27T07:26:28.672Z,100.00
2018-12-27T07:28:55.572Z,100.00
2018-12-27T07:31:22.486Z,100.00
2018-12-27T07:33:49.394Z,100.00
2018-12-27T07:36:16.315Z,100.00
2018-12-27T07:38:43.219Z,100.00
2018-12-27T07:41:10.154Z,100.00
2018-12-27T07:43:37.104Z,100.00
2018-12-27T07:46:10.698Z,100.00
2018-12-27T07:48:32.862Z,100.00
2018-12-27T07:50:59.779Z,100.00
2018-12-27T07:53:26.669Z,100.00
2018-12-27T07:55:53.641Z,100.00
2018-12-27T07:58:20.544Z,100.00
2018-12-27T08:00:47.486Z,100.00
2018-12-27T08:03:14.398Z,100.00
2018-12-27T08:05:41.348Z,100.00
2018-12-27T08:08:08.228Z,100.00
2018-12-27T08:10:35.181Z,100.00
2018-12-27T08:13:02.088Z,100.00
2018-12-27T08:15:29.043Z,100.00
2018-12-27T08:17:55.990Z,100.00
2018-12-27T08:20:23.043Z,100.00
2018-12-27T08:22:50.066Z,100.00
2018-12-27T08:25:16.961Z,100.00
2018-12-27T08:27:43.892Z,100.00
2018-12-27T08:30:10.796Z,100.00
2018-12-27T08:32:37.720Z,100.00
2018-12-27T08:35:11.215Z,100.00
2018-12-27T08:37:33.513Z,100.00
2018-12-27T08:40:00.495Z,100.00
2018-12-27T08:42:27.433Z,100.00
2018-12-27T08:44:54.368Z,100.00
2018-12-27T08:47:21.317Z,100.00
2018-12-27T08:49:48.305Z,100.00
2018-12-27T08:52:15.355Z,100.00
2018-12-27T08:54:42.259Z,100.00
2018-12-27T08:57:09.178Z,100.00
2018-12-27T08:59:36.062Z,100.00
2018-12-27T09:02:02.991Z,100.00
2018-12-27T09:04:29.868Z,100.00
2018-12-27T09:06:56.798Z,100.00
2018-12-27T09:09:23.702Z,100.00
2018-12-27T09:11:50.699Z,100.00
2018-12-27T09:14:17.596Z,100.00
2018-12-27T09:16:44.757Z,100.00
2018-12-27T09:19:11.672Z,100.00
2018-12-27T09:21:38.576Z,100.00
2018-12-27T09:24:05.530Z,100.00
2018-12-27T09:26:32.452Z,100.00
2018-12-27T09:28:59.413Z,100.00
2018-12-27T09:31:26.317Z,100.00
2018-12-27T09:33:53.219Z,100.00
2018-12-27T09:36:20.116Z,100.00
2018-12-27T09:38:47.050Z,100.00
2018-12-27T09:41:13.936Z,100.00
2018-12-27T09:43:41.111Z,100.00
2018-12-27T09:46:08.198Z,100.00
2018-12-27T09:48:35.143Z,100.00
2018-12-27T09:51:02.041Z,100.00
2018-12-27T09:53:29.711Z,100.00
2018-12-27T09:55:56.691Z,100.00
2018-12-27T09:58:23.606Z,100.00
2018-12-27T10:00:50.551Z,100.00
2018-12-27T10:03:17.459Z,100.00
2018-12-27T10:05:44.471Z,100.00
2018-12-27T10:08:11.396Z,100.00
2018-12-27T10:10:38.319Z,100.00
2018-12-27T10:13:05.278Z,100.00
2018-12-27T10:15:32.479Z,100.00
2018-12-27T10:17:59.485Z,100.00
2018-12-27T10:20:26.387Z,100.00
2018-12-27T10:22:53.381Z,100.00
2018-12-27T10:25:20.317Z,100.00
2018-12-27T10:27:47.232Z,99.52
2018-12-27T10:30:14.182Z,99.66
2018-12-27T10:32:41.083Z,99.66
2018-12-27T10:35:08.166Z,99.37
2018-12-27T10:37:35.324Z,98.87
2018-12-27T10:40:02.332Z,97.53
2018-12-27T10:42:29.243Z,98.16
2018-12-27T10:44:56.254Z,98.03
2018-12-27T10:47:23.152Z,98.25
2018-12-27T10:49:50.145Z,97.34
2018-12-27T10:52:17.054Z,96.57
2018-12-27T10:54:44.263Z,97.78
2018-12-27T10:57:11.289Z,97.64
2018-12-27T10:59:38.248Z,97.10
2018-12-27T11:02:05.147Z,97.60
2018-12-27T11:04:32.113Z,98.16
2018-12-27T11:06:59.147Z,97.10
2018-12-27T11:09:26.129Z,98.02
2018-12-27T11:11:53.045Z,96.69
2018-12-27T11:14:20.148Z,95.17
2018-12-27T11:16:47.052Z,93.20
2018-12-27T11:19:13.972Z,92.93
2018-12-27T11:21:40.852Z,92.26
2018-12-27T11:24:08.461Z,89.21
2018-12-27T11:26:35.472Z,89.02
2018-12-27T11:29:02.386Z,92.19
2018-12-27T11:31:29.330Z,92.06
2018-12-27T11:33:56.221Z,90.34
2018-12-27T11:36:23.150Z,89.47
2018-12-27T11:38:50.051Z,88.46
2018-12-27T11:41:16.989Z,89.09
2018-12-27T11:43:43.947Z,88.17
2018-12-27T11:46:11.035Z,89.86
2018-12-27T11:48:37.958Z,88.22
2018-12-27T11:51:04.911Z,87.13
2018-12-27T11:53:31.808Z,87.89
2018-12-27T11:55:58.725Z,87.47
2018-12-27T11:58:25.648Z,88.61
2018-12-27T12:00:52.666Z,89.78
2018-12-27T12:03:19.570Z,90.27
2018-12-27T12:05:46.509Z,89.79
2018-12-27T12:08:13.450Z,89.42
2018-12-27T12:10:40.393Z,89.26
2018-12-27T12:13:07.362Z,87.17
2018-12-27T12:15:34.339Z,88.89
2018-12-27T12:18:01.255Z,87.79
2018-12-27T12:20:28.192Z,90.72
2018-12-27T12:22:55.118Z,90.61
2018-12-27T12:25:22.220Z,88.54
2018-12-27T12:27:49.437Z,87.91
2018-12-27T12:30:16.380Z,89.82
2018-12-27T12:32:43.286Z,89.41
2018-12-27T12:35:10.324Z,88.46
2018-12-27T12:37:37.526Z,87.32
2018-12-27T12:40:05.117Z,84.21
2018-12-27T12:42:33.128Z,84.79
2018-12-27T12:45:00.302Z,83.80
2018-12-27T12:47:27.379Z,85.56
2018-12-27T12:49:54.549Z,86.48
2018-12-27T12:52:21.489Z,85.99
2018-12-27T12:54:48.383Z,86.12
2018-12-27T12:57:15.631Z,86.83
2018-12-27T12:59:42.537Z,85.26
2018-12-27T13:02:09.471Z,87.24
2018-12-27T13:04:36.397Z,87.65
2018-12-27T13:07:03.622Z,85.69
2018-12-27T13:09:30.525Z,83.05
2018-12-27T13:11:57.474Z,82.79
2018-12-27T13:14:24.381Z,81.92
2018-12-27T13:16:51.319Z,82.87
2018-12-27T13:19:18.328Z,84.34
2018-12-27T13:21:45.248Z,84.91
2018-12-27T13:24:12.159Z,85.30
2018-12-27T13:26:39.089Z,84.84
2018-12-27T13:29:06.008Z,82.86
2018-12-27T13:31:32.935Z,85.57
2018-12-27T13:33:59.868Z,84.14
2018-12-27T13:36:27.037Z,86.40
2018-12-27T13:38:53.962Z,83.36
2018-12-27T13:41:21.133Z,84.51
2018-12-27T13:43:48.093Z,85.62
2018-12-27T13:46:15.049Z,85.48
2018-12-27T13:48:41.986Z,85.92
2018-12-27T13:51:08.967Z,86.08
2018-12-27T13:53:35.926Z,85.27
2018-12-27T13:56:03.487Z,85.35
2018-12-27T13:58:30.619Z,85.42
2018-12-27T14:00:58.162Z,84.45
2018-12-27T14:03:25.179Z,86.07
2018-12-27T14:05:52.086Z,85.12
2018-12-27T14:08:19.038Z,85.50
2018-12-27T14:10:45.933Z,85.11
2018-12-27T14:13:12.880Z,86.69
2018-12-27T14:15:39.796Z,87.48
2018-12-27T14:18:06.733Z,88.23
2018-12-27T14:20:33.677Z,86.34
2018-12-27T14:23:00.620Z,88.05
2018-12-27T14:25:27.641Z,88.33
2018-12-27T14:27:54.615Z,87.75
2018-12-27T14:30:21.531Z,90.63
2018-12-27T14:32:48.476Z,91.39
2018-12-27T14:35:15.397Z,91.70
2018-12-27T14:37:46.659Z,87.21
2018-12-27T14:40:13.776Z,89.99
2018-12-27T14:42:40.714Z,87.42
2018-12-27T14:45:07.746Z,88.05
2018-12-27T14:47:34.677Z,90.61
2018-12-27T14:50:01.657Z,91.48
2018-12-27T14:52:28.596Z,93.05
2018-12-27T14:54:55.501Z,93.21
2018-12-27T14:57:22.410Z,92.30
2018-12-27T14:59:49.377Z,93.30
2018-12-27T15:02:16.311Z,94.00
2018-12-27T15:04:43.346Z,95.08
2018-12-27T15:07:10.378Z,95.74
2018-12-27T15:09:37.320Z,96.15
2018-12-27T15:12:04.237Z,96.31
2018-12-27T15:14:31.364Z,98.62
2018-12-27T15:16:58.332Z,98.09
2018-12-27T15:19:25.275Z,96.98
2018-12-27T15:21:52.237Z,96.99
2018-12-27T15:24:19.148Z,96.15
2018-12-27T15:26:46.087Z,95.43
2018-12-27T15:29:13.038Z,95.98
2018-12-27T15:31:39.966Z,96.56
2018-12-27T15:34:06.909Z,96.44
2018-12-27T15:36:33.843Z,94.82
2018-12-27T15:39:00.824Z,95.31
2018-12-27T15:41:27.907Z,95.81
2018-12-27T15:43:54.871Z,96.32
2018-12-27T15:46:21.857Z,96.64
2018-12-27T15:48:49.054Z,96.75
2018-12-27T15:51:15.970Z,96.58
2018-12-27T15:53:42.914Z,97.00
2018-12-27T15:56:10.019Z,98.03
2018-12-27T15:58:36.946Z,97.81
2018-12-27T16:01:03.854Z,97.99
2018-12-27T16:03:30.775Z,98.63
2018-12-27T16:05:57.711Z,98.78
2018-12-27T16:08:24.720Z,98.20
2018-12-27T16:10:51.726Z,98.15
2018-12-27T16:13:18.623Z,99.08
2018-12-27T16:15:46.180Z,99.99
2018-12-27T16:18:13.089Z,99.96
2018-12-27T16:20:40.031Z,99.79
2018-12-27T16:23:06.936Z,99.32
2018-12-27T16:25:33.879Z,99.47
2018-12-27T16:28:00.786Z,100.00
2018-12-27T16:30:28.030Z,99.99
2018-12-27T16:32:54.952Z,99.69
2018-12-27T16:35:22.175Z,99.34
2018-12-27T16:37:49.187Z,99.04
2018-12-27T16:40:16.474Z,99.09
2018-12-27T16:42:43.376Z,100.00
2018-12-27T16:45:10.340Z,100.00
2018-12-27T16:47:37.241Z,100.00
2018-12-27T16:50:05.383Z,100.00
2018-12-27T16:52:32.282Z,99.36
2018-12-27T16:54:59.240Z,99.48
2018-12-27T16:57:26.146Z,99.50
2018-12-27T16:59:53.096Z,100.00
2018-12-27T17:02:20.012Z,100.00
2018-12-27T17:04:46.971Z,100.00
2018-12-27T17:07:16.273Z,99.11
2018-12-27T17:09:42.836Z,99.78
2018-12-27T17:12:09.740Z,100.00
2018-12-27T17:14:36.678Z,100.00
2018-12-27T17:17:03.684Z,100.00
2018-12-27T17:19:30.576Z,100.00
2018-12-27T17:21:57.515Z,100.00
2018-12-27T17:24:24.409Z,100.00
2018-12-27T17:26:51.342Z,100.00
2018-12-27T17:29:18.241Z,100.00
2018-12-27T17:31:45.172Z,100.00
2018-12-27T17:34:12.066Z,100.00
2018-12-27T17:36:39.004Z,100.00
2018-12-27T17:39:06.650Z,100.00
2018-12-27T17:41:33.634Z,100.00
2018-12-27T17:44:00.537Z,100.00
2018-12-27T17:46:27.500Z,100.00
2018-12-27T17:48:54.517Z,100.00
2018-12-27T17:51:21.678Z,100.00
2018-12-27T17:53:48.564Z,100.00
2018-12-27T17:56:15.492Z,100.00
2018-12-27T17:58:42.421Z,100.00
2018-12-27T18:01:09.617Z,100.00
2018-12-27T18:03:36.537Z,100.00
2018-12-27T18:06:03.465Z,100.00
2018-12-27T18:08:30.376Z,100.00
2018-12-27T18:10:57.305Z,100.00
2018-12-27T18:13:24.202Z,100.00
2018-12-27T18:15:51.148Z,100.00
2018-12-27T18:18:18.082Z,100.00
2018-12-27T18:20:45.043Z,99.43
2018-12-27T18:23:11.998Z,99.56
2018-12-27T18:25:38.891Z,100.00
2018-12-27T18:28:06.124Z,99.84
2018-12-27T18:30:33.036Z,99.27
2018-12-27T18:32:59.970Z,99.05
2018-12-27T18:35:26.889Z,99.10
2018-12-27T18:37:53.805Z,100.00
2018-12-27T18:40:20.703Z,100.00
2018-12-27T18:42:47.651Z,100.00
2018-12-27T18:45:14.605Z,100.00
2018-12-27T18:47:41.535Z,100.00
2018-12-27T18:50:10.009Z,100.00
2018-12-27T18:52:37.090Z,100.00
2018-12-27T18:55:04.110Z,100.00
2018-12-27T18:57:31.047Z,100.00
2018-12-27T18:59:58.001Z,100.00
2018-12-27T19:02:24.950Z,100.00
2018-12-27T19:04:51.831Z,100.00
2018-12-27T19:07:18.805Z,100.00
2018-12-27T19:09:45.751Z,100.00
2018-12-27T19:12:49.214Z,100.00
2018-12-27T19:15:19.701Z,100.00
2018-12-27T19:17:54.856Z,100.00
2018-12-27T19:20:21.772Z,100.00
2018-12-27T19:22:53.959Z,100.00
2018-12-27T19:25:20.851Z,100.00
2018-12-27T19:27:47.796Z,100.00
2018-12-27T19:30:14.745Z,100.00
2018-12-27T19:32:41.684Z,100.00
2018-12-27T19:35:08.564Z,100.00
2018-12-27T19:37:35.701Z,100.00
2018-12-27T19:40:02.897Z,100.00
2018-12-27T19:42:30.073Z,100.00
2018-12-27T19:44:57.034Z,100.00
2018-12-27T19:47:24.010Z,100.00
2018-12-27T19:49:50.893Z,100.00
2018-12-27T19:52:18.007Z,100.00
2018-12-27T19:54:44.975Z,100.00
2018-12-27T19:57:11.879Z,100.00
2018-12-27T19:59:38.796Z,100.00
2018-12-27T20:02:05.681Z,100.00
2018-12-27T20:04:32.616Z,100.00
2018-12-27T20:06:59.918Z,100.00
2018-12-27T20:09:26.847Z,100.00
2018-12-27T20:11:53.732Z,100.00
2018-12-27T20:14:20.672Z,100.00
2018-12-27T20:16:47.576Z,100.00
2018-12-27T20:19:14.607Z,100.00
2018-12-27T20:21:41.528Z,100.00
2018-12-27T20:24:08.456Z,100.00
2018-12-27T20:26:35.369Z,100.00
2018-12-27T20:29:02.300Z,100.00
2018-12-27T20:31:29.204Z,100.00
2018-12-27T20:33:56.116Z,100.00
2018-12-27T20:36:23.046Z,100.00
2018-12-27T20:38:49.965Z,100.00
2018-12-27T20:41:16.893Z,100.00
2018-12-27T20:43:43.818Z,100.00
2018-12-27T20:46:10.735Z,100.00
2018-12-27T20:48:37.658Z,100.00
2018-12-27T20:51:04.551Z,100.00
2018-12-27T20:53:31.466Z,100.00
2018-12-27T20:55:58.589Z,100.00
2018-12-27T20:58:25.523Z,100.00
2018-12-27T21:00:52.409Z,100.00
2018-12-27T21:03:19.432Z,100.00
2018-12-27T21:05:46.370Z,100.00
2018-12-27T21:08:14.203Z,100.00
2018-12-27T21:10:41.457Z,100.00
2018-12-27T21:13:08.458Z,100.00
2018-12-27T21:15:35.421Z,100.00
2018-12-27T21:18:02.330Z,100.00
2018-12-27T21:20:29.289Z,100.00
2018-12-27T21:22:56.220Z,100.00
2018-12-27T21:25:23.202Z,100.00
2018-12-27T21:27:50.102Z,100.00
2018-12-27T21:30:17.015Z,100.00
2018-12-27T21:32:43.896Z,100.00
2018-12-27T21:35:10.811Z,100.00
2018-12-27T21:37:37.757Z,100.00
2018-12-27T21:40:04.936Z,100.00
2018-12-27T21:42:33.897Z,100.00
2018-12-27T21:45:01.216Z,100.00
2018-12-27T21:47:28.202Z,100.00
2018-12-27T21:49:55.189Z,100.00
2018-12-27T21:52:22.104Z,100.00
2018-12-27T21:54:49.042Z,100.00
2018-12-27T21:57:16.006Z,100.00
2018-12-27T21:59:42.931Z,100.00
2018-12-27T22:02:09.824Z,100.00
2018-12-27T22:04:38.460Z,100.00
2018-12-27T22:07:06.120Z,100.00
2018-12-27T22:09:34.359Z,100.00
2018-12-27T22:12:02.219Z,100.00
2018-12-27T22:14:29.736Z,100.00
2018-12-27T22:16:57.967Z,100.00
2018-12-27T22:19:25.851Z,100.00
2018-12-27T22:21:54.753Z,100.00
2018-12-27T22:24:22.809Z,100.00
2018-12-27T22:26:50.428Z,100.00
2018-12-27T22:29:17.576Z,100.00
2018-12-27T22:31:44.479Z,100.00
2018-12-27T22:34:11.397Z,100.00
2018-12-27T22:36:38.709Z,100.00
2018-12-27T22:39:06.678Z,100.00
2018-12-27T22:41:33.733Z,100.00
2018-12-27T22:44:00.652Z,100.00
2018-12-27T22:46:27.740Z,100.00
2018-12-27T22:48:54.687Z,100.00
2018-12-27T22:51:21.620Z,100.00
2018-12-27T22:53:48.522Z,100.00
2018-12-27T22:56:15.522Z,100.00
2018-12-27T22:58:42.538Z,100.00
2018-12-27T23:01:09.610Z,100.00
2018-12-27T23:03:37.541Z,100.00
2018-12-27T23:06:04.493Z,100.00
2018-12-27T23:08:31.396Z,100.00
2018-12-27T23:10:58.290Z,100.00
2018-12-27T23:13:25.216Z,100.00
2018-12-27T23:15:52.127Z,100.00
2018-12-27T23:18:20.098Z,100.00
2018-12-27T23:20:46.998Z,100.00
2018-12-27T23:23:13.933Z,100.00
2018-12-27T23:25:40.829Z,100.00
2018-12-27T23:28:07.759Z,100.00
2018-12-27T23:30:34.664Z,100.00
2018-12-27T23:33:01.612Z,100.00
2018-12-27T23:35:28.510Z,100.00
2018-12-27T23:37:55.775Z,100.00
2018-12-27T23:40:22.779Z,100.00
2018-12-27T23:42:49.755Z,100.00
2018-12-27T23:45:16.713Z,100.00
2018-12-27T23:47:43.658Z,100.00
2018-12-27T23:50:10.689Z,100.00
2018-12-27T23:52:37.617Z,100.00
2018-12-27T23:55:04.503Z,100.00
2018-12-27T23:57:31.447Z,100.00
2018-12-27T23:59:58.356Z,100.00
